Rome, GA

2:24 PM EDT on August 29, 2014 (GMT -0400)
Russell | Change Station
CLOSE
Current Station
Airport
Location: Rome,
Elevation: 643 ft
Nearby Weather Stations

Elev 643 ft 34.35 °N, 85.16 °W | Updated 31 minutes ago

Clear
Clear
92 °F
Feels Like 91 °F
N
7
Wind Variable Wind from South

Today
High -- | Low -- °F
--% Chance of Precip.
Yesterday
High -- | Low -- °F
Precip. -- in
7:11 AM 8:10 PM
Waxing Crescent, 15% visible
Pressure 30.02 in
Visibility 10.0 miles
Clouds Clear
Heat Index 91 °F
Dew Point 59 °F
Humidity 33%
Rainfall 0.00 in
Snow Depth Not available.
UV 11 out of 12
Pollen 9.50 out of 12
Air Quality Not available.
Flu Activity Not available.
METAR KRMG 291753Z AUTO 19006KT 10SM CLR 33/15 A3005 RMK AO2 SLP165 T03330150 10339 20172 56012

More Conditions Fewer Conditions

Pressure 30.02 in
Visibility 10.0 miles
Clouds Clear
Heat Index 91 °F
Dew Point 59 °F
Humidity 33%
Rainfall 0.00 in
Snow Depth Not available.
UV 11 out of 12
Pollen 9.50 out of 12
Air Quality Not available.
Flu Activity Not available.
METAR KRMG 291753Z AUTO 19006KT 10SM CLR 33/15 A3005 RMK AO2 SLP165 T03330150 10339 20172 56012

More Conditions Fewer Conditions

10-Day Weather Forecast

Almanac

Astronomy

Aug. 29, 2014 Rise Set
Actual Time 7:11 AM EDT 8:10 PM EDT
Civil Twilight 6:46 AM EDT 8:36 PM EDT
Nautical Twilight 6:15 AM EDT 9:06 PM EDT
Astronomical Twilight 5:44 AM EDT 9:38 PM EDT
Moon 10:49 AM EDT 10:20 PM EDT
Length of Visible Light 13h 50m
Length of Day
12h 58m
Tomorrow will be 2m 2s shorter.
Waxing Crescent, 15% of the Moon is Illuminated
Today
Waxing Crescent
Sep 2
First Quarter
Sep 8
Full
Sep 15
Last Quarter
Sep 24
New

Today's Extremes

State Highs State Lows

Community

WunderPhotos

Upload Photos

1,748,310 photos uploaded!

Nearby

Snow Depth

Station Depth Elevation
No new snow has been reported.

Earthquake Activity

City Distance Mag. Time & Date
No recent earthquake activity has been reported nearby.
Minimum magnitude displayed is 2.5.

Coastal Water Temperatures

Place Temperature
No Stations Reporting

Nearby Weather Stations